Time;durP1;ratioP1;P1;durP2;ratioP2;P2;SDS_P1;SDS_P2;PMS_P1;PMS_P2;Temp;Humidity;BMP_temperature;BMP_pressure;BME280_temperature;BME280_humidity;BME280_pressure;Samples;Min_cycle;Max_cycle;Signal;HPM_P1;HPM_P2
2021/07/16 00:02:14;;;;;;;29.77;15.43;;;;;;;15.87;100.00;100451.53;4995159;28;20364;-71
2021/07/16 00:04:41;;;;;;;23.60;14.10;;;;;;;15.92;100.00;100463.81;4978051;28;20070;-70
2021/07/16 00:07:07;;;;;;;32.80;15.25;;;;;;;15.87;100.00;100467.69;4997946;28;20058;-71
2021/07/16 00:09:34;;;;;;;25.02;15.57;;;;;;;15.84;100.00;100456.31;4998690;28;20054;-71
2021/07/16 00:12:00;;;;;;;24.13;14.50;;;;;;;15.85;100.00;100466.97;4998706;28;20092;-71
2021/07/16 00:14:27;;;;;;;27.58;15.00;;;;;;;15.88;100.00;100472.13;4998572;28;20089;-71
2021/07/16 00:16:54;;;;;;;27.45;15.93;;;;;;;15.91;100.00;100475.53;4998668;28;20054;-71
2021/07/16 00:19:21;;;;;;;30.80;16.70;;;;;;;15.86;100.00;100470.53;4998388;28;20058;-71
2021/07/16 00:21:48;;;;;;;26.08;14.48;;;;;;;15.86;100.00;100475.91;5015067;28;20125;-70
2021/07/16 00:24:15;;;;;;;28.67;15.98;;;;;;;15.87;100.00;100480.31;5018114;28;20100;-71
2021/07/16 00:26:42;;;;;;;26.20;16.15;;;;;;;15.82;100.00;100475.28;5018389;28;20108;-69
2021/07/16 00:29:08;;;;;;;23.58;15.13;;;;;;;15.82;100.00;100486.06;5018845;28;20061;-71
2021/07/16 00:31:37;;;;;;;32.50;15.93;;;;;;;15.75;100.00;100472.22;5018876;28;20494;-70
2021/07/16 00:34:04;;;;;;;25.63;14.45;;;;;;;15.78;100.00;100470.25;5017702;28;20454;-70
2021/07/16 00:36:31;;;;;;;28.13;14.55;;;;;;;15.73;100.00;100476.00;5017740;28;20773;-71
2021/07/16 00:38:58;;;;;;;22.00;14.98;;;;;;;15.73;100.00;100481.38;5017977;28;20058;-71
2021/07/16 00:41:25;;;;;;;19.25;14.40;;;;;;;15.74;100.00;100477.69;5017425;28;20046;-71
2021/07/16 00:43:52;;;;;;;23.55;14.07;;;;;;;15.70;100.00;100474.38;5017406;28;20525;-70
2021/07/16 00:46:18;;;;;;;20.98;14.38;;;;;;;15.72;100.00;100479.66;5017001;28;20321;-71
2021/07/16 00:48:45;;;;;;;27.98;14.73;;;;;;;15.67;100.00;100489.91;5016610;28;20057;-72
2021/07/16 00:51:12;;;;;;;20.83;14.18;;;;;;;15.61;100.00;100486.75;5017596;28;20057;-71
2021/07/16 00:53:39;;;;;;;22.05;13.55;;;;;;;15.67;100.00;100488.09;5017354;28;20469;-70
2021/07/16 00:56:06;;;;;;;24.58;14.35;;;;;;;15.65;100.00;100481.13;5016342;28;20432;-72
2021/07/16 00:58:33;;;;;;;23.52;14.00;;;;;;;15.69;100.00;100493.38;5000284;28;20062;-72
2021/07/16 01:01:02;;;;;;;22.55;12.57;;;;;;;15.67;100.00;100489.91;5017215;28;20428;-72
2021/07/16 01:03:29;;;;;;;18.45;12.02;;;;;;;15.65;100.00;100482.00;5017422;28;20200;-71
2021/07/16 01:05:55;;;;;;;17.17;12.18;;;;;;;15.69;100.00;100496.91;5017446;28;20045;-71
2021/07/16 01:08:22;;;;;;;20.08;12.38;;;;;;;15.67;100.00;100489.91;5017243;28;20058;-71
2021/07/16 01:10:49;;;;;;;19.83;11.45;;;;;;;15.61;100.00;100489.44;5017505;28;20050;-71
2021/07/16 01:13:16;;;;;;;24.83;12.35;;;;;;;15.59;100.00;100491.38;5016951;28;20447;-71
2021/07/16 01:15:42;;;;;;;21.20;13.13;;;;;;;15.59;100.00;100491.38;5017269;28;20125;-71
2021/07/16 01:18:09;;;;;;;21.00;11.93;;;;;;;15.50;100.00;100489.41;5016686;28;20054;-70
2021/07/16 01:20:36;;;;;;;21.65;12.02;;;;;;;15.54;100.00;100498.09;5009655;28;20042;-71
2021/07/16 01:23:14;;;;;;;18.40;11.15;;;;;;;15.50;100.00;100497.47;4997450;28;20321;-71
2021/07/16 01:25:41;;;;;;;21.02;11.90;;;;;;;15.49;100.00;100506.53;4997631;28;20058;-72
2021/07/16 01:28:08;;;;;;;19.08;11.63;;;;;;;15.50;100.00;100502.84;4997349;28;20110;-71
2021/07/16 01:30:35;;;;;;;21.95;12.13;;;;;;;15.43;100.00;100498.91;4997126;28;20051;-71
2021/07/16 01:33:04;;;;;;;21.50;12.07;;;;;;;15.39;100.00;100494.72;4995968;28;20436;-71
2021/07/16 01:35:31;;;;;;;17.15;11.00;;;;;;;15.42;100.00;100500.72;4997416;28;20058;-71
2021/07/16 01:37:59;;;;;;;21.42;11.77;;;;;;;15.40;100.00;100500.00;4997278;28;20054;-70
2021/07/16 01:40:26;;;;;;;22.13;11.93;;;;;;;15.40;100.00;100499.13;4997336;28;20054;-71
2021/07/16 01:42:56;;;;;;;18.98;12.00;;;;;;;15.40;100.00;100497.31;4996528;28;20506;-71
2021/07/16 01:45:29;;;;;;;25.23;12.57;;;;;;;15.40;100.00;100491.06;4997280;28;20347;-71
2021/07/16 01:47:58;;;;;;;18.90;12.73;;;;;;;15.43;100.00;100491.69;4997071;28;20066;-71
2021/07/16 01:50:27;;;;;;;21.50;12.00;;;;;;;15.32;100.00;100483.59;4996973;28;20047;-71
2021/07/16 01:52:54;;;;;;;24.58;12.63;;;;;;;15.28;100.00;100480.28;4996723;28;20046;-71
2021/07/16 01:55:23;;;;;;;20.35;12.10;;;;;;;15.24;100.00;100486.84;4996713;28;20062;-71
2021/07/16 01:57:52;;;;;;;19.40;12.50;;;;;;;15.29;100.00;100487.38;4996837;28;20050;-71
2021/07/16 02:00:25;;;;;;;24.05;12.45;;;;;;;15.24;100.00;100491.41;4996798;28;20108;-70
2021/07/16 02:03:00;;;;;;;15.07;11.38;;;;;;;15.20;100.00;100494.31;4996829;28;20679;-71
2021/07/16 02:05:29;;;;;;;20.23;11.77;;;;;;;15.21;100.00;100492.47;4996679;28;20133;-71
2021/07/16 02:07:59;;;;;;;20.40;12.48;;;;;;;15.24;100.00;100494.09;4996709;28;20447;-69
2021/07/16 02:10:26;;;;;;;19.13;12.07;;;;;;;15.23;100.00;100495.91;4996716;28;20050;-71
2021/07/16 02:12:54;;;;;;;20.40;11.70;;;;;;;15.14;100.00;100481.31;4996536;28;20124;-70
2021/07/16 02:15:27;;;;;;;23.02;12.55;;;;;;;15.12;100.00;100488.66;4996669;28;20077;-71
2021/07/16 02:17:54;;;;;;;23.98;12.70;;;;;;;15.11;100.00;100486.06;4996475;28;20158;-71
2021/07/16 02:20:32;;;;;;;25.40;12.35;;;;;;;15.11;100.00;100499.50;5000954;28;20352;-71
2021/07/16 02:23:02;;;;;;;24.23;12.25;;;;;;;15.07;100.00;100498.88;5016025;28;20050;-70
2021/07/16 02:25:29;;;;;;;19.30;11.32;;;;;;;15.07;100.00;100502.44;5015979;28;20436;-71
2021/07/16 02:28:02;;;;;;;26.08;12.05;;;;;;;15.12;100.00;100506.59;5015917;28;20049;-71
2021/07/16 02:30:29;;;;;;;27.92;12.10;;;;;;;15.10;100.00;100505.88;5015877;28;20103;-71
2021/07/16 02:32:58;;;;;;;23.67;11.40;;;;;;;15.11;100.00;100502.19;5015824;28;20088;-71
2021/07/16 02:35:25;;;;;;;19.25;11.60;;;;;;;15.09;100.00;100506.84;5015879;28;20049;-71
2021/07/16 02:37:52;;;;;;;19.88;10.88;;;;;;;15.05;100.00;100515.13;5015585;28;20408;-71
2021/07/16 02:40:21;;;;;;;22.92;11.55;;;;;;;14.97;100.00;100514.00;5015456;28;20447;-70
2021/07/16 02:42:48;;;;;;;23.50;11.20;;;;;;;15.00;100.00;100519.13;5015489;28;20112;-71
2021/07/16 02:45:18;;;;;;;18.77;9.70;;;;;;;14.99;100.00;100522.78;5015438;28;20093;-71
2021/07/16 02:47:45;;;;;;;19.60;10.63;;;;;;;14.96;100.00;100515.81;5015478;28;20050;-71
2021/07/16 02:50:32;;;;;;;19.88;10.68;;;;;;;14.97;100.00;100514.84;5015494;28;20046;-71
2021/07/16 02:53:08;;;;;;;19.48;10.32;;;;;;;14.83;100.00;100507.81;5015662;28;20108;-69
2021/07/16 02:55:38;;;;;;;19.15;11.25;;;;;;;14.98;100.00;100516.53;4998888;28;20050;-70
2021/07/16 02:58:09;;;;;;;20.88;11.55;;;;;;;14.98;100.00;100513.84;5017089;28;20100;-71
2021/07/16 03:00:37;;;;;;;20.80;10.98;;;;;;;14.98;100.00;100519.22;5016556;28;20050;-70
2021/07/16 03:03:05;;;;;;;22.75;11.50;;;;;;;14.99;100.00;100523.63;5016368;28;20440;-70
2021/07/16 03:05:37;;;;;;;35.97;12.18;;;;;;;14.97;100.00;100522.06;5016616;28;20149;-71
2021/07/16 03:08:06;;;;;;;18.65;11.55;;;;;;;14.98;100.00;100524.59;5014299;28;20337;-71
2021/07/16 03:10:39;;;;;;;20.42;11.25;;;;;;;14.92;100.00;100535.81;5015037;28;20046;-71
2021/07/16 03:13:10;;;;;;;22.38;12.20;;;;;;;14.91;100.00;100537.66;5015567;28;20050;-71
2021/07/16 03:15:37;;;;;;;21.45;11.10;;;;;;;14.89;100.00;100528.00;5015553;28;20062;-70
2021/07/16 03:18:05;;;;;;;21.98;10.73;;;;;;;14.86;100.00;100525.53;5015278;28;20050;-70
2021/07/16 03:20:35;;;;;;;19.35;11.15;;;;;;;14.85;100.00;100534.53;5007362;28;20046;-70
2021/07/16 03:23:03;;;;;;;21.83;11.00;;;;;;;14.76;100.00;100533.41;4995322;28;20058;-70
2021/07/16 03:25:29;;;;;;;20.60;10.90;;;;;;;14.75;100.00;100534.34;4995667;28;20050;-71
2021/07/16 03:27:56;;;;;;;28.02;11.73;;;;;;;14.85;100.00;100540.78;4995610;28;20101;-71
2021/07/16 03:30:26;;;;;;;25.48;11.65;;;;;;;14.83;100.00;100542.75;4995225;28;20054;-71
2021/07/16 03:32:54;;;;;;;20.83;11.07;;;;;;;14.80;100.00;100546.50;4995415;28;20101;-70
2021/07/16 03:35:20;;;;;;;26.27;11.23;;;;;;;14.83;100.00;100547.25;4995334;28;20081;-71
2021/07/16 03:37:47;;;;;;;21.10;11.75;;;;;;;14.83;100.00;100558.00;4995268;28;20384;-71
2021/07/16 03:40:17;;;;;;;21.77;10.68;;;;;;;14.80;100.00;100559.94;4995304;28;20054;-70
2021/07/16 03:42:44;;;;;;;28.75;11.80;;;;;;;14.82;100.00;100564.34;4999081;28;20333;-70
2021/07/16 03:45:13;;;;;;;22.42;10.90;;;;;;;14.77;100.00;100557.47;4998887;28;20101;-71
2021/07/16 03:47:42;;;;;;;21.13;10.88;;;;;;;14.79;100.00;100563.59;4998134;28;20054;-70
2021/07/16 03:50:14;;;;;;;23.52;11.68;;;;;;;14.79;100.00;100563.59;4999014;28;20050;-71
2021/07/16 03:52:41;;;;;;;25.35;11.50;;;;;;;14.83;100.00;100560.69;4999133;28;20054;-70
2021/07/16 03:55:09;;;;;;;24.48;11.35;;;;;;;14.83;100.00;100556.19;4998744;28;20050;-71
2021/07/16 03:57:48;;;;;;;21.75;10.70;;;;;;;14.75;100.00;100561.22;4998124;28;20054;-71
2021/07/16 04:00:25;;;;;;;19.60;10.38;;;;;;;14.81;100.00;100560.78;4998986;28;20058;-71
2021/07/16 04:02:52;;;;;;;25.33;11.77;;;;;;;14.78;100.00;100572.59;4998981;28;20110;-70
2021/07/16 04:05:19;;;;;;;28.00;11.50;;;;;;;14.69;100.00;100567.88;4998597;28;20101;-70
2021/07/16 04:07:46;;;;;;;27.33;11.48;;;;;;;14.76;100.00;100574.56;4998733;28;20050;-70
2021/07/16 04:10:18;;;;;;;27.13;11.68;;;;;;;14.81;100.00;100582.28;4998429;28;20046;-70
2021/07/16 04:12:56;;;;;;;21.77;10.40;;;;;;;14.80;100.00;100581.44;4998504;28;20105;-70
2021/07/16 04:15:26;;;;;;;25.65;9.88;;;;;;;14.85;100.00;100583.78;4998417;28;20070;-70
2021/07/16 04:17:55;;;;;;;23.37;10.57;;;;;;;14.80;100.00;100585.94;4998661;28;20072;-69
2021/07/16 04:20:22;;;;;;;25.98;10.30;;;;;;;14.88;100.00;100588.09;5003321;28;20717;-70
2021/07/16 04:22:49;;;;;;;24.02;10.70;;;;;;;14.80;100.00;100586.81;5017982;28;20054;-70
2021/07/16 04:25:19;;;;;;;23.55;11.13;;;;;;;14.78;100.00;100587.88;5017762;28;20054;-70
2021/07/16 04:27:49;;;;;;;25.23;10.82;;;;;;;14.85;100.00;100593.66;5017167;28;20064;-70
2021/07/16 04:30:18;;;;;;;26.27;11.27;;;;;;;14.80;100.00;100594.88;5017893;28;20053;-71
2021/07/16 04:32:45;;;;;;;23.67;10.80;;;;;;;14.82;100.00;100605.50;5017692;28;20424;-70
2021/07/16 04:35:14;;;;;;;22.85;11.27;;;;;;;14.82;100.00;100601.97;5017629;28;20061;-71
2021/07/16 04:37:42;;;;;;;26.67;10.93;;;;;;;14.81;100.00;100609.16;5017656;28;20054;-70
2021/07/16 04:40:12;;;;;;;23.77;11.15;;;;;;;14.78;100.00;100610.22;5017516;28;20124;-70
2021/07/16 04:42:38;;;;;;;20.98;10.65;;;;;;;14.79;100.00;100613.78;5017571;28;20046;-70
2021/07/16 04:45:06;;;;;;;24.15;10.35;;;;;;;14.84;100.00;100614.31;5017411;28;20053;-70
2021/07/16 04:47:32;;;;;;;22.25;11.20;;;;;;;14.77;100.00;100613.88;5016498;28;20077;-69
2021/07/16 04:49:59;;;;;;;22.98;10.60;;;;;;;14.74;100.00;100606.06;5017604;28;20065;-69
2021/07/16 04:52:26;;;;;;;24.92;11.57;;;;;;;14.76;100.00;100609.50;5016721;28;20046;-70
2021/07/16 04:54:52;;;;;;;25.00;10.30;;;;;;;14.72;100.00;100605.28;5017264;28;20057;-72
2021/07/16 04:57:19;;;;;;;26.40;11.40;;;;;;;14.70;100.00;100612.56;5017434;28;20465;-69
2021/07/16 04:59:46;;;;;;;25.23;11.32;;;;;;;14.73;100.00;100612.38;5017275;28;20107;-70
2021/07/16 05:02:12;;;;;;;22.95;10.88;;;;;;;14.72;100.00;100610.66;5017520;28;20054;-69
2021/07/16 05:04:39;;;;;;;21.77;11.20;;;;;;;14.70;100.00;100617.94;5016263;28;20137;-69
2021/07/16 05:07:06;;;;;;;31.65;12.02;;;;;;;14.69;100.00;100620.75;5016929;28;20050;-70
2021/07/16 05:09:32;;;;;;;26.08;11.68;;;;;;;14.71;100.00;100624.19;5017336;28;20058;-69
2021/07/16 05:11:59;;;;;;;26.27;11.40;;;;;;;14.70;100.00;100623.31;5015842;28;20046;-69
2021/07/16 05:14:26;;;;;;;29.60;12.65;;;;;;;14.66;100.00;100611.09;5017094;28;20068;-70
2021/07/16 05:16:53;;;;;;;25.63;11.90;;;;;;;14.72;100.00;100618.72;5016827;28;20578;-70
2021/07/16 05:19:20;;;;;;;29.70;13.05;;;;;;;14.71;100.00;100619.66;5016880;28;20403;-69
2021/07/16 05:21:49;;;;;;;28.95;12.40;;;;;;;14.66;100.00;100621.84;5002376;28;20047;-70
2021/07/16 05:24:16;;;;;;;27.40;12.55;;;;;;;14.59;100.00;100621.41;5000014;28;20082;-68
2021/07/16 05:26:43;;;;;;;30.50;12.23;;;;;;;14.60;100.00;100624.97;5007747;28;20347;-71
2021/07/16 05:29:12;;;;;;;21.95;11.20;;;;;;;14.60;100.00;100628.50;5018915;28;20058;-70
2021/07/16 05:31:38;;;;;;;24.38;11.15;;;;;;;14.63;100.00;100624.72;5016940;28;20077;-70
2021/07/16 05:34:05;;;;;;;28.08;12.27;;;;;;;14.68;100.00;100636.00;5016714;28;20061;-70
2021/07/16 05:36:32;;;;;;;26.67;12.38;;;;;;;14.69;100.00;100629.66;5016856;28;20054;-71
2021/07/16 05:39:04;;;;;;;23.90;11.85;;;;;;;14.73;100.00;100627.63;5016713;28;20073;-70
2021/07/16 05:41:31;;;;;;;23.77;11.10;;;;;;;14.76;100.00;100630.97;5009464;28;20393;-72
2021/07/16 05:43:57;;;;;;;22.92;11.15;;;;;;;14.79;100.00;100630.78;5003455;28;20396;-71
2021/07/16 05:46:27;;;;;;;26.50;11.68;;;;;;;14.79;100.00;100630.78;5003981;28;20049;-71
2021/07/16 05:48:54;;;;;;;26.20;11.95;;;;;;;14.80;100.00;100623.56;5006374;28;20049;-69
2021/07/16 05:51:20;;;;;;;28.15;11.80;;;;;;;14.82;100.00;100627.00;5007619;28;20116;-70
2021/07/16 05:53:47;;;;;;;18.48;11.48;;;;;;;14.83;100.00;100626.03;5002980;28;20100;-69
2021/07/16 05:56:14;;;;;;;26.50;11.80;;;;;;;14.78;100.00;100629.03;5006244;28;20049;-69
2021/07/16 05:58:40;;;;;;;28.85;12.07;;;;;;;14.84;100.00;100634.94;5004520;28;20050;-70
2021/07/16 06:01:07;;;;;;;21.33;11.18;;;;;;;14.82;100.00;100642.28;5001284;28;20050;-69
2021/07/16 06:03:34;;;;;;;22.60;12.90;;;;;;;14.83;100.00;100633.22;5001325;28;20447;-70
2021/07/16 06:06:01;;;;;;;22.35;12.40;;;;;;;14.88;100.00;100645.34;4996433;28;20449;-69
2021/07/16 06:08:27;;;;;;;19.98;11.25;;;;;;;14.88;100.00;100649.91;5002356;28;20050;-70
2021/07/16 06:10:54;;;;;;;22.92;12.60;;;;;;;14.85;100.00;100647.41;5004718;28;20055;-73
2021/07/16 06:13:21;;;;;;;23.85;11.02;;;;;;;14.87;100.00;100650.88;5006435;28;20057;-73
2021/07/16 06:15:47;;;;;;;26.65;11.23;;;;;;;14.88;100.00;100653.44;5012759;28;20526;-68
2021/07/16 06:18:14;;;;;;;26.25;12.25;;;;;;;14.75;100.00;100652.56;5014376;28;20077;-68
2021/07/16 06:20:44;;;;;;;24.70;13.07;;;;;;;14.76;100.00;100660.53;5006966;28;20058;-68
2021/07/16 06:23:12;;;;;;;22.38;11.18;;;;;;;14.64;100.00;100643.44;4993967;28;20042;-69
2021/07/16 06:25:38;;;;;;;18.15;10.65;;;;;;;14.65;100.00;100653.22;4993675;28;20369;-68
2021/07/16 06:28:06;;;;;;;24.35;11.68;;;;;;;14.67;100.00;100651.25;4994362;28;20081;-68
2021/07/16 06:30:33;;;;;;;22.35;11.95;;;;;;;14.70;100.00;100650.19;4993590;28;20050;-69
2021/07/16 06:33:00;;;;;;;17.75;10.57;;;;;;;14.75;100.00;100658.81;4992585;28;20442;-69
2021/07/16 06:35:26;;;;;;;25.58;10.57;;;;;;;14.78;100.00;100663.13;4993275;28;20047;-69
2021/07/16 06:37:53;;;;;;;14.93;9.60;;;;;;;14.69;100.00;100664.59;4994122;28;20062;-68
2021/07/16 06:40:20;;;;;;;19.17;8.50;;;;;;;14.61;100.00;100670.50;4999010;28;20053;-69
2021/07/16 06:42:46;;;;;;;15.70;8.45;;;;;;;14.52;100.00;100653.22;4990708;28;20146;-69
2021/07/16 06:45:13;;;;;;;17.05;9.65;;;;;;;14.62;100.00;100666.88;4977934;28;20399;-68
2021/07/16 06:47:40;;;;;;;18.13;9.70;;;;;;;14.78;100.00;100673.88;4995683;28;20100;-69
2021/07/16 06:50:07;;;;;;;13.63;8.80;;;;;;;14.91;100.00;100666.66;4995031;28;20429;-68
2021/07/16 06:52:34;;;;;;;12.27;8.27;;;;;;;14.93;100.00;100667.41;4994547;28;20486;-69
2021/07/16 06:55:01;;;;;;;14.50;8.48;;;;;;;15.01;100.00;100674.94;4994823;28;20057;-69
2021/07/16 06:57:28;;;;;;;18.00;8.77;;;;;;;15.13;100.00;100664.25;4996185;28;20057;-69
2021/07/16 06:59:55;;;;;;;16.90;9.40;;;;;;;15.20;100.00;100657.47;5013918;28;20042;-69
2021/07/16 07:02:21;;;;;;;16.23;9.60;;;;;;;15.32;100.00;100666.47;4995798;28;20051;-69
2021/07/16 07:04:48;;;;;;;17.92;9.13;;;;;;;15.44;100.00;100656.63;4995756;28;20626;-70
2021/07/16 07:07:15;;;;;;;13.15;8.07;;;;;;;15.37;100.00;100663.44;4995795;28;20104;-68
2021/07/16 07:09:41;;;;;;;18.73;10.05;;;;;;;15.38;100.00;100660.66;4995578;28;20054;-68
2021/07/16 07:12:08;;;;;;;14.95;8.30;;;;;;;15.42;100.00;100655.91;4995462;28;20086;-70
2021/07/16 07:14:35;;;;;;;14.48;8.40;;;;;;;15.42;100.00;100662.13;4996066;28;20428;-69
2021/07/16 07:17:02;;;;;;;14.38;8.25;;;;;;;15.42;100.00;100677.41;4999810;28;20117;-69
2021/07/16 07:19:28;;;;;;;15.90;8.32;;;;;;;15.43;100.00;100684.50;4999435;28;20392;-69
2021/07/16 07:21:55;;;;;;;18.65;8.20;;;;;;;15.45;100.00;100686.13;5017399;28;20085;-70
2021/07/16 07:24:22;;;;;;;10.38;7.28;;;;;;;15.64;100.00;100682.06;5005903;28;20104;-70
2021/07/16 07:26:48;;;;;;;15.57;7.35;;;;;;;15.57;100.00;100686.16;4997412;28;20109;-68
2021/07/16 07:29:15;;;;;;;20.55;9.25;;;;;;;15.48;100.00;100687.72;4997757;28;20050;-69
2021/07/16 07:31:41;;;;;;;18.73;8.10;;;;;;;15.47;100.00;100689.53;4999093;28;20053;-69
2021/07/16 07:34:11;;;;;;;15.90;9.25;;;;;;;15.43;100.00;100688.03;4999157;28;20216;-69
2021/07/16 07:36:37;;;;;;;13.20;7.53;;;;;;;15.47;100.00;100704.81;4999253;28;20054;-69
2021/07/16 07:39:06;;;;;;;18.35;8.35;;;;;;;15.38;100.00;100697.44;4998622;28;20077;-68
2021/07/16 07:41:32;;;;;;;13.00;7.70;;;;;;;15.33;100.00;100704.00;4999282;28;20046;-69
2021/07/16 07:43:59;;;;;;;14.73;6.30;;;;;;;15.24;100.00;100709.19;4998917;28;20450;-68
2021/07/16 07:46:26;;;;;;;17.80;6.85;;;;;;;15.28;100.00;100711.56;4999323;28;20058;-68
2021/07/16 07:48:53;;;;;;;15.43;7.28;;;;;;;15.24;100.00;100711.88;4998730;28;20061;-69
2021/07/16 07:51:20;;;;;;;16.80;6.68;;;;;;;15.27;100.00;100720.59;4998222;28;20054;-69
2021/07/16 07:53:47;;;;;;;19.50;7.03;;;;;;;15.18;100.00;100713.16;4998138;28;20475;-68
2021/07/16 07:56:28;;;;;;;19.88;6.45;;;;;;;15.20;100.00;100703.19;4999262;28;20081;-69
2021/07/16 07:58:55;;;;;;;20.38;7.32;;;;;;;15.21;100.00;100718.34;5020995;28;20054;-68
2021/07/16 08:01:22;;;;;;;17.88;7.57;;;;;;;15.20;100.00;100711.25;5016483;28;20050;-69
2021/07/16 08:03:49;;;;;;;15.98;7.35;;;;;;;15.18;100.00;100703.28;4997803;28;20050;-68
2021/07/16 08:06:16;;;;;;;20.38;6.97;;;;;;;15.21;100.00;100711.13;4998572;28;20058;-68
2021/07/16 08:08:43;;;;;;;22.35;7.18;;;;;;;15.35;100.00;100725.41;4998791;28;20054;-69
2021/07/16 08:11:10;;;;;;;13.10;6.88;;;;;;;15.38;100.00;100730.56;4997881;28;20082;-69
2021/07/16 08:13:37;;;;;;;17.40;7.32;;;;;;;15.44;100.00;100740.00;4998429;28;20050;-69
2021/07/16 08:16:04;;;;;;;17.48;8.05;;;;;;;15.34;100.00;100729.06;4998524;28;20125;-68
2021/07/16 08:18:31;;;;;;;22.58;6.78;;;;;;;15.50;100.00;100736.88;4997613;28;20066;-70
2021/07/16 08:20:58;;;;;;;17.25;6.60;;;;;;;15.48;100.00;100741.53;4998198;28;20058;-70
2021/07/16 08:23:25;;;;;;;18.52;5.80;;;;;;;15.51;100.00;100743.13;4998465;28;20101;-69
2021/07/16 08:25:51;;;;;;;15.80;7.00;;;;;;;15.55;100.00;100740.09;4997158;28;20360;-69
2021/07/16 08:28:18;;;;;;;18.33;6.70;;;;;;;15.60;100.00;100735.22;4997098;28;20440;-69
2021/07/16 08:30:45;;;;;;;18.17;7.32;;;;;;;15.56;100.00;100733.75;4997689;28;20058;-68
2021/07/16 08:33:11;;;;;;;20.45;7.15;;;;;;;15.65;100.00;100748.38;4998362;28;20042;-69
2021/07/16 08:35:38;;;;;;;18.70;6.53;;;;;;;15.63;100.00;100752.13;4998300;28;20054;-69
2021/07/16 08:38:07;;;;;;;11.60;6.05;;;;;;;15.68;100.00;100755.34;4998326;28;20121;-69
2021/07/16 08:40:34;;;;;;;16.02;6.72;;;;;;;15.78;100.00;100742.94;4998141;28;20051;-69
2021/07/16 08:43:02;;;;;;;16.27;6.25;;;;;;;15.86;100.00;100745.91;4999013;28;20104;-69
2021/07/16 08:45:29;;;;;;;17.38;6.30;;;;;;;16.07;100.00;100753.38;5006900;28;20080;-69
2021/07/16 08:47:56;;;;;;;12.45;5.30;;;;;;;16.10;100.00;100752.28;5003358;28;20053;-68
2021/07/16 08:50:23;;;;;;;13.85;4.85;;;;;;;16.09;100.00;100748.75;5005631;28;20092;-69
2021/07/16 08:52:50;;;;;;;23.85;6.22;;;;;;;15.99;100.00;100761.19;4997108;28;20042;-68
2021/07/16 08:55:19;;;;;;;16.92;5.68;;;;;;;15.92;100.00;100770.69;4997294;28;20384;-69
2021/07/16 08:57:46;;;;;;;13.93;5.95;;;;;;;15.86;100.00;100772.81;5010132;28;20050;-69
2021/07/16 09:00:14;;;;;;;17.80;6.10;;;;;;;15.93;100.00;100781.34;5016250;28;20431;-69
2021/07/16 09:02:56;;;;;;;22.92;6.00;;;;;;;15.84;100.00;100774.78;4997909;28;20356;-70
2021/07/16 09:05:49;;;;;;;16.08;4.97;;;;;;;15.76;100.00;100774.50;4996803;28;20058;-70
2021/07/16 09:08:18;;;;;;;16.95;5.88;;;;;;;15.74;100.00;100768.34;4996620;28;20065;-69
2021/07/16 09:10:51;;;;;;;13.15;4.82;;;;;;;15.80;100.00;100772.44;4997752;28;20105;-68
2021/07/16 09:13:19;;;;;;;16.75;4.40;;;;;;;15.85;100.00;100775.66;4997909;28;20042;-68
2021/07/16 09:15:52;;;;;;;14.50;4.95;;;;;;;15.99;100.00;100771.94;4997940;28;20046;-68
2021/07/16 09:18:28;;;;;;;12.05;4.30;;;;;;;16.08;99.73;100775.78;4997874;28;20061;-68
2021/07/16 09:21:03;;;;;;;15.30;4.20;;;;;;;16.15;100.00;100782.44;5007080;28;20050;-69
2021/07/16 09:23:35;;;;;;;14.95;5.10;;;;;;;16.28;100.00;100782.38;5004663;28;20137;-69
2021/07/16 09:26:15;;;;;;;19.05;5.65;;;;;;;16.45;100.00;100773.00;5003305;28;21124;-68
2021/07/16 09:28:47;;;;;;;14.07;4.70;;;;;;;16.62;100.00;100768.19;4995798;28;20112;-70
2021/07/16 09:31:22;;;;;;;17.83;4.95;;;;;;;16.76;100.00;100761.69;5004010;28;20058;-69
2021/07/16 09:33:54;;;;;;;16.10;4.93;;;;;;;16.75;100.00;100763.56;5016917;28;20050;-70
2021/07/16 09:36:28;;;;;;;16.63;5.60;;;;;;;16.78;100.00;100767.84;5015495;28;20471;-70
2021/07/16 09:39:04;;;;;;;17.70;6.00;;;;;;;16.84;100.00;100761.97;5003914;28;20054;-68
2021/07/16 09:41:31;;;;;;;21.75;5.97;;;;;;;16.93;95.08;100760.38;5009511;28;20100;-69
2021/07/16 09:44:03;;;;;;;21.08;5.35;;;;;;;17.18;97.34;100769.28;5016245;28;20099;-69
2021/07/16 09:46:30;;;;;;;21.02;4.70;;;;;;;17.23;97.07;100767.91;5015668;28;20096;-69
2021/07/16 09:49:13;;;;;;;22.42;5.45;;;;;;;17.15;97.70;100773.06;5016812;28;20077;-69
2021/07/16 09:51:42;;;;;;;14.98;4.47;;;;;;;17.22;96.31;100770.75;5016662;28;20452;-68
2021/07/16 09:54:13;;;;;;;20.13;4.90;;;;;;;17.23;96.02;100772.47;5016683;28;20053;-70
2021/07/16 09:56:40;;;;;;;;;;;;;;;17.21;98.80;100783.38;5012771;28;20506;-69
2021/07/16 09:59:13;;;;;;;21.92;5.32;;;;;;;17.08;98.93;100780.81;4996988;28;19925;-69
2021/07/16 10:01:42;;;;;;;14.68;5.05;;;;;;;17.11;98.95;100785.09;4996763;28;20062;-69
2021/07/16 10:04:27;;;;;;;18.67;5.43;;;;;;;17.03;98.27;100784.81;5011989;28;20152;-71
2021/07/16 10:06:55;;;;;;;13.13;5.00;;;;;;;16.94;97.20;100791.78;5014990;28;20502;-70
2021/07/16 10:09:24;;;;;;;25.73;5.50;;;;;;;16.94;98.07;100787.22;5016059;28;20416;-68
2021/07/16 10:11:53;;;;;;;26.27;5.75;;;;;;;16.83;100.00;100793.47;5001705;28;20101;-69
2021/07/16 10:14:20;;;;;;;26.35;5.85;;;;;;;16.68;100.00;100800.88;5004238;28;20045;-69
2021/07/16 10:16:49;;;;;;;26.55;6.75;;;;;;;16.49;100.00;100797.88;5006737;28;20107;-69
2021/07/16 10:19:17;;;;;;;20.60;4.78;;;;;;;16.46;100.00;100803.50;5005572;28;20069;-68
2021/07/16 10:21:45;;;;;;;23.55;5.50;;;;;;;16.43;98.74;100810.88;5004177;28;20046;-70
2021/07/16 10:24:14;;;;;;;23.77;5.93;;;;;;;16.41;99.83;100810.09;5001594;28;20046;-68
2021/07/16 10:26:42;;;;;;;21.15;5.93;;;;;;;16.46;100.00;100814.28;4996129;28;20081;-68
2021/07/16 10:29:35;;;;;;;18.83;6.10;;;;;;;16.42;100.00;100825.31;5001899;28;20049;-71
2021/07/16 10:32:02;;;;;;;27.35;6.63;;;;;;;16.33;100.00;100820.59;4999817;28;20046;-69
2021/07/16 10:34:32;;;;;;;23.75;6.15;;;;;;;16.35;100.00;100821.34;5000061;28;20376;-68
2021/07/16 10:37:04;;;;;;;19.52;7.03;;;;;;;16.48;100.00;100820.41;5015523;28;20474;-69
2021/07/16 10:39:41;;;;;;;22.27;7.00;;;;;;;16.52;100.00;100790.41;5012933;28;20423;-67
2021/07/16 10:42:26;;;;;;;19.30;6.53;;;;;;;16.81;100.00;100819.69;5015519;28;20490;-68
2021/07/16 10:45:06;;;;;;;21.30;6.82;;;;;;;16.76;100.00;100821.88;5015888;28;20050;-67
2021/07/16 10:47:41;;;;;;;21.70;7.57;;;;;;;16.74;100.00;100820.28;5015494;28;20104;-69
2021/07/16 10:50:13;;;;;;;20.05;7.63;;;;;;;16.55;100.00;100811.75;5014941;28;20053;-68
2021/07/16 10:52:46;;;;;;;25.30;8.07;;;;;;;16.54;100.00;100818.13;5015251;28;20045;-67
2021/07/16 10:55:16;;;;;;;17.77;7.15;;;;;;;16.52;100.00;100822.75;5015645;28;20107;-68
2021/07/16 10:57:45;;;;;;;31.10;9.25;;;;;;;16.35;100.00;100826.72;5015738;28;20049;-68
2021/07/16 11:00:32;;;;;;;26.80;8.93;;;;;;;16.31;100.00;100824.38;5011391;28;20104;-66
2021/07/16 11:03:10;;;;;;;25.83;8.40;;;;;;;16.34;100.00;100826.84;4995899;28;20086;-70
2021/07/16 11:05:44;;;;;;;25.92;8.57;;;;;;;16.39;100.00;100822.84;4995013;28;20391;-69
2021/07/16 11:08:25;;;;;;;26.45;9.18;;;;;;;16.27;100.00;100824.63;4995701;28;20085;-69
2021/07/16 11:10:58;;;;;;;22.35;8.77;;;;;;;16.36;100.00;100828.47;4995878;28;20332;-69
2021/07/16 11:13:46;;;;;;;19.75;8.25;;;;;;;16.26;100.00;100838.19;4995647;28;20105;-68